Time;durP1;ratioP1;P1;durP2;ratioP2;P2;SDS_P1;SDS_P2;PMS_P1;PMS_P2;Temp;Humidity;BMP_temperature;BMP_pressure;BME280_temperature;BME280_humidity;BME280_pressure;Samples;Min_cycle;Max_cycle;Signal;HPM_P1;HPM_P2
2021/12/14 00:01:47;;;;;;;24.93;14.10;;;;;;;;;;5068826;28;20052;-69
2021/12/14 00:04:18;;;;;;;25.85;13.38;;;;;;;;;;5067632;28;20103;-69
2021/12/14 00:06:46;;;;;;;24.23;13.68;;;;;;;;;;5068122;28;20521;-69
2021/12/14 00:09:23;;;;;;;27.93;14.40;;;;;;;;;;5068848;28;20533;-69
2021/12/14 00:12:08;;;;;;;26.50;14.02;;;;;;;;;;5062409;28;20868;-69
2021/12/14 00:17:20;;;;;;;29.13;14.82;;;;;;;;;;5050194;28;21535;-69
2021/12/14 00:19:47;;;;;;;32.38;14.93;;;;;;;;;;5059984;28;20513;-69
2021/12/14 00:22:28;;;;;;;27.80;16.17;;;;;;;;;;5057994;28;20112;-69
2021/12/14 00:24:55;;;;;;;23.25;14.48;;;;;;;;;;5054302;28;20100;-69
2021/12/14 00:27:23;;;;;;;28.55;15.27;;;;;;;;;;5050179;28;20507;-69
2021/12/14 00:29:51;;;;;;;27.02;15.05;;;;;;;;;;5066397;28;20124;-69
2021/12/14 00:32:20;;;;;;;28.17;15.93;;;;;;;;;;5061340;28;20081;-70
2021/12/14 00:34:47;;;;;;;29.27;15.63;;;;;;;;;;5050550;28;20049;-69
2021/12/14 00:37:16;;;;;;;26.45;15.32;;;;;;;;;;5049202;28;20063;-69
2021/12/14 00:39:43;;;;;;;30.08;16.45;;;;;;;;;;5056491;28;20049;-69
2021/12/14 00:42:10;;;;;;;31.70;16.85;;;;;;;;;;5056959;28;21156;-70
2021/12/14 00:44:36;;;;;;;28.70;15.40;;;;;;;;;;5057514;28;20072;-70
2021/12/14 00:47:03;;;;;;;27.13;15.55;;;;;;;;;;5048904;28;20508;-69
2021/12/14 00:49:31;;;;;;;25.98;15.38;;;;;;;;;;5049175;28;20060;-69
2021/12/14 00:51:57;;;;;;;31.08;17.10;;;;;;;;;;5054283;28;20041;-70
2021/12/14 00:54:23;;;;;;;28.02;15.82;;;;;;;;;;5058948;28;20049;-69
2021/12/14 00:56:50;;;;;;;27.48;15.68;;;;;;;;;;5052710;28;20064;-69
2021/12/14 00:59:18;;;;;;;28.23;17.05;;;;;;;;;;5057089;28;20053;-69
2021/12/14 01:02:00;;;;;;;30.90;17.07;;;;;;;;;;5068386;28;20123;-69
2021/12/14 01:04:31;;;;;;;29.30;16.45;;;;;;;;;;5068918;28;20134;-69
2021/12/14 01:06:58;;;;;;;31.70;17.10;;;;;;;;;;5069291;28;20053;-70
2021/12/14 01:09:27;;;;;;;30.83;15.80;;;;;;;;;;5060788;28;20083;-69
2021/12/14 01:11:53;;;;;;;;;;;;;;;;;;5059798;28;20053;-69
2021/12/14 01:14:27;;;;;;;28.67;15.95;;;;;;;;;;5061201;28;44428;-69
2021/12/14 01:17:10;;;;;;;28.33;16.90;;;;;;;;;;5050133;28;20063;-69
2021/12/14 01:19:38;;;;;;;30.08;15.95;;;;;;;;;;5051601;28;20500;-69
2021/12/14 01:27:09;;;;;;;27.02;16.13;;;;;;;;;;5068107;28;20051;-69
2021/12/14 01:29:37;;;;;;;27.95;16.52;;;;;;;;;;5068334;28;20093;-69
2021/12/14 01:32:04;;;;;;;29.00;15.63;;;;;;;;;;5057675;28;20056;-69
2021/12/14 01:34:32;;;;;;;32.63;16.95;;;;;;;;;;5050421;28;20272;-69
2021/12/14 01:37:02;;;;;;;28.07;17.17;;;;;;;;;;5068651;28;20076;-69
2021/12/14 01:41:57;;;;;;;29.98;17.00;;;;;;;;;;5066079;28;20059;-69
2021/12/14 01:44:26;;;;;;;28.98;16.83;;;;;;;;;;5068526;28;20059;-69
2021/12/14 01:46:57;;;;;;;28.30;16.40;;;;;;;;;;5068705;28;20065;-69
2021/12/14 01:49:25;;;;;;;29.83;16.38;;;;;;;;;;5068188;28;20108;-69
2021/12/14 01:51:54;;;;;;;30.27;17.17;;;;;;;;;;5058806;28;20079;-69
2021/12/14 01:54:25;;;;;;;27.30;16.67;;;;;;;;;;5049578;28;20049;-70
2021/12/14 01:56:52;;;;;;;27.25;16.95;;;;;;;;;;5048636;28;20061;-69
2021/12/14 01:59:23;;;;;;;30.77;17.38;;;;;;;;;;5065536;28;20049;-70
2021/12/14 02:01:57;;;;;;;29.80;18.10;;;;;;;;;;5061308;28;20148;-69
2021/12/14 02:04:25;;;;;;;32.20;18.63;;;;;;;;;;5057933;28;20530;-69
2021/12/14 02:06:53;;;;;;;30.15;17.73;;;;;;;;;;5048293;28;20513;-70
2021/12/14 02:09:19;;;;;;;30.42;17.60;;;;;;;;;;5047794;28;20064;-69
2021/12/14 02:11:50;;;;;;;30.38;17.95;;;;;;;;;;5048989;28;20132;-69
2021/12/14 02:14:17;;;;;;;32.08;19.15;;;;;;;;;;5066720;28;20511;-69
2021/12/14 02:16:43;;;;;;;29.60;18.65;;;;;;;;;;5059889;28;20057;-69
2021/12/14 02:19:13;;;;;;;32.33;18.55;;;;;;;;;;5053178;28;20057;-70
2021/12/14 02:21:41;;;;;;;31.58;18.90;;;;;;;;;;5067390;28;20536;-69
2021/12/14 02:24:08;;;;;;;29.77;17.83;;;;;;;;;;5060475;28;20057;-69
2021/12/14 02:26:43;;;;;;;32.13;18.58;;;;;;;;;;5048583;28;20169;-70
2021/12/14 02:29:15;;;;;;;31.85;18.35;;;;;;;;;;5067400;28;20060;-69
2021/12/14 02:31:41;;;;;;;30.80;19.17;;;;;;;;;;5063052;28;20050;-69
2021/12/14 02:34:08;;;;;;;31.23;19.33;;;;;;;;;;5055086;28;20528;-69
2021/12/14 02:36:38;;;;;;;34.38;20.45;;;;;;;;;;5048118;28;20057;-70
2021/12/14 02:39:22;;;;;;;32.47;19.60;;;;;;;;;;5058111;28;20057;-70
2021/12/14 02:41:52;;;;;;;34.88;19.45;;;;;;;;;;5065082;28;20147;-69
2021/12/14 02:44:19;;;;;;;33.58;20.35;;;;;;;;;;5048057;28;20062;-69
2021/12/14 02:46:47;;;;;;;37.78;21.38;;;;;;;;;;5048210;28;20172;-70
2021/12/14 02:49:16;;;;;;;36.85;21.40;;;;;;;;;;5054727;28;20594;-69
2021/12/14 02:51:44;;;;;;;35.20;21.27;;;;;;;;;;5059775;28;20057;-70
2021/12/14 02:54:13;;;;;;;36.35;21.13;;;;;;;;;;5056030;28;20590;-69
2021/12/14 02:56:41;;;;;;;36.08;20.75;;;;;;;;;;5068093;28;20057;-69
2021/12/14 02:59:13;;;;;;;39.17;21.37;;;;;;;;;;5060259;28;20055;-69
2021/12/14 03:01:40;;;;;;;35.08;20.83;;;;;;;;;;5064647;28;20068;-70
2021/12/14 03:04:08;;;;;;;36.92;22.55;;;;;;;;;;5047644;28;20132;-70
2021/12/14 03:06:53;;;;;;;36.35;21.83;;;;;;;;;;5047809;28;20589;-70
2021/12/14 03:09:55;;;;;;;38.58;22.85;;;;;;;;;;5060444;28;20055;-69
2021/12/14 03:12:41;;;;;;;36.75;22.27;;;;;;;;;;5068115;28;20059;-70
2021/12/14 03:15:12;;;;;;;39.10;21.90;;;;;;;;;;5071121;28;20529;-70
2021/12/14 03:17:42;;;;;;;36.80;22.70;;;;;;;;;;5050253;28;20176;-69
2021/12/14 03:20:11;;;;;;;40.17;22.52;;;;;;;;;;5050916;28;20053;-70
2021/12/14 03:22:40;;;;;;;40.03;24.70;;;;;;;;;;5050703;28;20059;-70
2021/12/14 03:25:07;;;;;;;37.22;23.33;;;;;;;;;;5063843;28;20059;-69
2021/12/14 03:27:37;;;;;;;53.00;24.38;;;;;;;;;;5055344;28;20100;-69
2021/12/14 03:30:16;;;;;;;38.75;23.30;;;;;;;;;;5058116;28;20103;-70
2021/12/14 03:32:42;;;;;;;37.75;23.42;;;;;;;;;;5050032;28;20431;-70
2021/12/14 03:35:09;;;;;;;41.97;23.00;;;;;;;;;;5055545;28;20873;-70
2021/12/14 03:37:35;;;;;;;40.17;24.40;;;;;;;;;;5054743;28;20486;-69
2021/12/14 03:40:03;;;;;;;38.40;22.58;;;;;;;;;;5064494;28;20059;-70
2021/12/14 03:42:37;;;;;;;39.22;24.75;;;;;;;;;;5068110;28;20136;-70
2021/12/14 03:45:05;;;;;;;44.60;24.13;;;;;;;;;;5063067;28;20140;-69
2021/12/14 03:47:32;;;;;;;;;;;;;;;;;;5053722;28;20053;-69
2021/12/14 03:50:00;;;;;;;38.72;23.42;;;;;;;;;;5054728;28;45566;-69
2021/12/14 03:52:31;;;;;;;39.22;22.88;;;;;;;;;;5050796;28;20064;-69
2021/12/14 03:54:59;;;;;;;40.92;23.98;;;;;;;;;;5060783;28;20049;-69
2021/12/14 03:57:26;;;;;;;38.53;23.58;;;;;;;;;;5065512;28;20080;-70
2021/12/14 03:59:52;;;;;;;40.13;24.52;;;;;;;;;;5070512;28;20510;-69
2021/12/14 04:02:19;;;;;;;39.92;24.20;;;;;;;;;;5064665;28;20048;-69
2021/12/14 04:04:51;;;;;;;41.28;24.90;;;;;;;;;;5050488;28;20065;-70
2021/12/14 04:07:19;;;;;;;42.75;24.80;;;;;;;;;;5048546;28;20057;-70
2021/12/14 04:09:46;;;;;;;41.65;24.88;;;;;;;;;;5059472;28;20541;-69
2021/12/14 04:12:14;;;;;;;42.40;24.27;;;;;;;;;;5058943;28;20057;-69
2021/12/14 04:14:41;;;;;;;40.35;24.33;;;;;;;;;;5068093;28;20052;-69
2021/12/14 04:17:09;;;;;;;43.47;26.17;;;;;;;;;;5061519;28;20052;-69
2021/12/14 04:19:36;;;;;;;43.10;25.17;;;;;;;;;;5053592;28;20536;-69
2021/12/14 04:22:04;;;;;;;41.50;24.70;;;;;;;;;;5056757;28;20450;-69
2021/12/14 04:24:32;;;;;;;43.67;25.48;;;;;;;;;;5055706;28;20057;-69
2021/12/14 04:27:00;;;;;;;42.05;24.08;;;;;;;;;;5060236;28;20487;-69
2021/12/14 04:29:27;;;;;;;43.88;24.85;;;;;;;;;;5063285;28;20260;-69
2021/12/14 04:31:53;;;;;;;47.90;26.65;;;;;;;;;;5057754;28;20045;-69
2021/12/14 04:34:20;;;;;;;40.55;24.05;;;;;;;;;;5067711;28;20088;-69
2021/12/14 04:36:50;;;;;;;41.90;23.33;;;;;;;;;;5057749;28;20514;-69
2021/12/14 04:53:10;;;;;;;40.20;23.02;;;;;;;;;;5049486;28;20058;-69
2021/12/14 04:55:37;;;;;;;38.25;23.15;;;;;;;;;;5050758;28;20054;-69
2021/12/14 04:58:03;;;;;;;37.17;22.92;;;;;;;;;;5049578;28;20419;-69
2021/12/14 05:00:38;;;;;;;38.42;22.92;;;;;;;;;;5049246;28;20060;-69
2021/12/14 05:03:14;;;;;;;37.30;22.52;;;;;;;;;;5069623;28;20057;-69
2021/12/14 05:05:47;;;;;;;39.00;23.05;;;;;;;;;;5056921;28;20061;-69
2021/12/14 05:10:46;;;;;;;38.83;21.48;;;;;;;;;;5054826;28;20053;-69
2021/12/14 05:13:13;;;;;;;38.80;22.35;;;;;;;;;;5052662;28;20058;-69
2021/12/14 05:15:41;;;;;;;35.53;21.40;;;;;;;;;;5048389;28;20518;-69
2021/12/14 05:18:08;;;;;;;41.83;22.92;;;;;;;;;;5049872;28;20152;-69
2021/12/14 05:20:35;;;;;;;38.30;22.95;;;;;;;;;;5055063;28;20066;-69
2021/12/14 05:23:04;;;;;;;38.15;22.95;;;;;;;;;;5058012;28;20049;-69
2021/12/14 05:25:30;;;;;;;;;;;;;;;;;;5051149;28;20057;-69
2021/12/14 05:28:00;;;;;;;36.05;20.15;;;;;;;;;;5049915;28;44660;-69
2021/12/14 05:30:28;;;;;;;34.72;19.48;;;;;;;;;;5060236;28;20057;-69
2021/12/14 05:32:56;;;;;;;36.97;21.15;;;;;;;;;;5049583;28;20057;-69
2021/12/14 05:35:22;;;;;;;34.30;20.45;;;;;;;;;;5058828;28;20529;-69
2021/12/14 05:37:52;;;;;;;34.97;20.35;;;;;;;;;;5054726;28;20053;-69
2021/12/14 05:40:39;;;;;;;32.88;19.42;;;;;;;;;;5063739;28;20067;-70
2021/12/14 05:43:09;;;;;;;35.05;20.58;;;;;;;;;;5063505;28;20618;-69
2021/12/14 05:45:38;;;;;;;34.97;20.02;;;;;;;;;;5049864;28;20055;-69
2021/12/14 05:48:04;;;;;;;35.30;19.83;;;;;;;;;;5052932;28;20049;-70
2021/12/14 05:50:33;;;;;;;32.95;19.33;;;;;;;;;;5049051;28;20058;-69
2021/12/14 05:53:00;;;;;;;34.75;19.80;;;;;;;;;;5048630;28;20050;-70
2021/12/14 05:55:28;;;;;;;30.88;17.95;;;;;;;;;;5055928;28;20071;-69
2021/12/14 05:57:54;;;;;;;;;;;;;;;;;;5067033;28;20049;-69
2021/12/14 06:00:21;;;;;;;30.10;17.60;;;;;;;;;;5047385;28;44509;-69
2021/12/14 06:02:47;;;;;;;31.33;18.15;;;;;;;;;;5050630;28;20108;-69
2021/12/14 06:05:16;;;;;;;31.20;18.35;;;;;;;;;;5067467;28;20602;-70
2021/12/14 06:07:43;;;;;;;31.17;17.77;;;;;;;;;;5065088;28;20156;-69
2021/12/14 06:10:10;;;;;;;30.15;17.02;;;;;;;;;;5068816;28;20059;-70
2021/12/14 06:12:37;;;;;;;30.35;18.30;;;;;;;;;;5064377;28;20504;-70
2021/12/14 06:15:05;;;;;;;28.00;17.60;;;;;;;;;;5065204;28;20063;-69
2021/12/14 06:17:33;;;;;;;33.20;19.10;;;;;;;;;;5079418;28;20063;-70
2021/12/14 06:20:02;;;;;;;29.23;17.70;;;;;;;;;;5057348;28;20435;-69
2021/12/14 06:22:28;;;;;;;28.85;17.48;;;;;;;;;;5059368;28;20533;-69
2021/12/14 06:24:57;;;;;;;31.42;17.52;;;;;;;;;;5052477;28;20061;-70
2021/12/14 06:27:23;;;;;;;;;;;;;;;;;;5063021;28;20065;-70
2021/12/14 06:29:55;;;;;;;27.98;17.73;;;;;;;;;;5064526;28;43550;-70
2021/12/14 06:32:24;;;;;;;29.70;17.02;;;;;;;;;;5063634;28;20063;-70
2021/12/14 06:34:53;;;;;;;29.63;17.20;;;;;;;;;;5066326;28;20151;-70
2021/12/14 06:40:09;;;;;;;30.88;16.55;;;;;;;;;;5065828;28;44579;-71
2021/12/14 06:42:43;;;;;;;27.20;15.98;;;;;;;;;;5052003;28;20056;-71
2021/12/14 06:45:12;;;;;;;27.35;16.10;;;;;;;;;;5066101;28;20618;-71
2021/12/14 06:47:40;;;;;;;30.45;16.88;;;;;;;;;;5066691;28;20067;-71
2021/12/14 06:50:09;;;;;;;26.98;16.70;;;;;;;;;;5055903;28;20127;-68
2021/12/14 06:52:35;;;;;;;29.70;16.83;;;;;;;;;;5067914;28;20523;-70
2021/12/14 06:55:02;;;;;;;30.58;17.17;;;;;;;;;;5051110;28;20063;-70
2021/12/14 06:57:29;;;;;;;28.27;16.30;;;;;;;;;;5047799;28;20049;-70
2021/12/14 06:59:56;;;;;;;26.92;16.48;;;;;;;;;;5048073;28;20064;-68
2021/12/14 07:02:23;;;;;;;29.17;17.23;;;;;;;;;;5066526;28;20956;-69
2021/12/14 07:04:51;;;;;;;27.52;16.60;;;;;;;;;;5064936;28;20049;-70
2021/12/14 07:07:23;;;;;;;29.08;16.85;;;;;;;;;;5056680;28;20152;-70
2021/12/14 07:09:51;;;;;;;28.85;16.73;;;;;;;;;;5080681;28;20588;-69
2021/12/14 07:12:20;;;;;;;29.67;16.85;;;;;;;;;;5078951;28;20059;-69
2021/12/14 07:14:49;;;;;;;34.42;17.10;;;;;;;;;;5052228;28;20059;-70
2021/12/14 07:17:18;;;;;;;29.10;16.77;;;;;;;;;;5061979;28;20148;-69
2021/12/14 07:19:47;;;;;;;30.73;17.65;;;;;;;;;;5050695;28;20057;-69
2021/12/14 07:22:13;;;;;;;;;;;;;;;;;;5047754;28;20132;-69
2021/12/14 07:24:39;;;;;;;31.20;17.17;;;;;;;;;;5047416;28;44533;-69
2021/12/14 07:27:15;;;;;;;29.10;17.25;;;;;;;;;;5061164;28;20145;-69
2021/12/14 07:29:41;;;;;;;30.48;17.67;;;;;;;;;;5060235;28;20045;-69
2021/12/14 07:32:08;;;;;;;30.00;18.17;;;;;;;;;;5050100;28;20053;-69
2021/12/14 07:34:34;;;;;;;29.88;17.98;;;;;;;;;;5046304;28;20058;-70
2021/12/14 07:37:01;;;;;;;28.67;16.98;;;;;;;;;;5052461;28;20088;-70
2021/12/14 07:39:27;;;;;;;30.20;17.50;;;;;;;;;;5047269;28;20057;-69
2021/12/14 07:41:58;;;;;;;32.50;18.55;;;;;;;;;;5059977;28;20522;-70
2021/12/14 07:44:26;;;;;;;29.50;17.77;;;;;;;;;;5066691;28;20140;-70
2021/12/14 07:46:58;;;;;;;31.65;17.77;;;;;;;;;;5068055;28;20540;-70
2021/12/14 07:49:24;;;;;;;;;;;;;;;;;;5066641;28;20057;-70
2021/12/14 07:51:53;;;;;;;28.98;16.45;;;;;;;;;;5056574;28;44346;-70
2021/12/14 07:54:43;;;;;;;33.42;18.08;;;;;;;;;;5059442;28;20148;-70
2021/12/14 07:57:19;;;;;;;30.10;17.48;;;;;;;;;;5049802;28;20061;-70
2021/12/14 07:59:47;;;;;;;32.67;18.23;;;;;;;;;;5069345;28;20523;-70
2021/12/14 08:02:14;;;;;;;;;;;;;;;;;;5069819;28;20946;-70
2021/12/14 08:04:42;;;;;;;33.33;17.50;;;;;;;;;;5069819;28;45862;-70
2021/12/14 08:07:09;;;;;;;32.58;18.65;;;;;;;;;;5070487;28;20057;-70
2021/12/14 08:09:48;;;;;;;30.05;17.55;;;;;;;;;;5070282;28;20172;-73
2021/12/14 08:12:28;;;;;;;32.50;17.90;;;;;;;;;;5071628;28;20053;-71
2021/12/14 08:15:04;;;;;;;34.40;18.00;;;;;;;;;;5090546;28;20056;-71
2021/12/14 08:17:31;;;;;;;33.85;17.25;;;;;;;;;;5089525;28;20051;-71
2021/12/14 08:19:58;;;;;;;30.40;17.15;;;;;;;;;;5089960;28;20052;-71
2021/12/14 08:22:44;;;;;;;32.00;17.17;;;;;;;;;;5089883;28;20521;-71
2021/12/14 08:25:12;;;;;;;32.65;18.40;;;;;;;;;;5089412;28;20059;-71
2021/12/14 08:27:41;;;;;;;33.60;17.77;;;;;;;;;;5089425;28;20446;-71
2021/12/14 08:30:12;;;;;;;32.22;17.95;;;;;;;;;;5089844;28;20075;-71
2021/12/14 08:32:40;;;;;;;33.22;17.52;;;;;;;;;;5089330;28;20052;-71
2021/12/14 08:35:08;;;;;;;31.08;17.55;;;;;;;;;;5089502;28;20052;-71
2021/12/14 08:37:45;;;;;;;32.75;17.23;;;;;;;;;;5089713;28;20157;-71
2021/12/14 08:40:15;;;;;;;30.65;17.23;;;;;;;;;;5089123;28;20049;-71
2021/12/14 08:42:52;;;;;;;31.38;17.83;;;;;;;;;;5090040;28;20058;-71
2021/12/14 08:45:26;;;;;;;30.50;18.45;;;;;;;;;;5088504;28;20058;-71
2021/12/14 08:47:55;;;;;;;31.67;18.08;;;;;;;;;;5083093;28;20053;-71
2021/12/14 08:50:22;;;;;;;34.22;19.65;;;;;;;;;;5062482;28;20141;-71
2021/12/14 08:52:49;;;;;;;31.20;17.67;;;;;;;;;;5053137;28;20523;-70
2021/12/14 08:55:17;;;;;;;33.78;19.42;;;;;;;;;;5049126;28;20540;-70
2021/12/14 08:57:43;;;;;;;36.38;19.13;;;;;;;;;;5049077;28;20116;-71
2021/12/14 09:00:23;;;;;;;30.33;17.90;;;;;;;;;;5049611;28;20057;-70
2021/12/14 09:02:53;;;;;;;32.15;18.45;;;;;;;;;;5061130;28;20048;-70
2021/12/14 09:05:26;;;;;;;28.85;17.73;;;;;;;;;;5069156;28;20136;-71
2021/12/14 09:07:52;;;;;;;32.78;18.70;;;;;;;;;;5059052;28;20057;-70
2021/12/14 09:10:22;;;;;;;32.28;19.20;;;;;;;;;;5049823;28;20051;-71
2021/12/14 09:12:49;;;;;;;31.27;19.35;;;;;;;;;;5064310;28;20123;-71
2021/12/14 09:15:20;;;;;;;33.25;19.48;;;;;;;;;;5066009;28;20053;-71
2021/12/14 09:17:47;;;;;;;34.97;20.08;;;;;;;;;;5054880;28;20055;-71
2021/12/14 09:20:17;;;;;;;34.17;19.15;;;;;;;;;;5066332;28;20049;-71
2021/12/14 09:22:52;;;;;;;39.65;20.90;;;;;;;;;;5066185;28;20529;-71
2021/12/14 09:25:22;;;;;;;39.17;20.85;;;;;;;;;;5065698;28;20053;-71
2021/12/14 09:27:48;;;;;;;35.13;20.55;;;;;;;;;;5068053;28;20056;-71
2021/12/14 09:30:16;;;;;;;42.03;21.40;;;;;;;;;;5050882;28;20057;-71
2021/12/14 09:32:42;;;;;;;47.77;21.43;;;;;;;;;;5055491;28;20061;-70
2021/12/14 09:35:16;;;;;;;49.05;22.85;;;;;;;;;;5070398;28;20490;-71
2021/12/14 09:37:47;;;;;;;52.67;24.23;;;;;;;;;;5068546;28;20130;-70
2021/12/14 09:40:17;;;;;;;53.30;24.42;;;;;;;;;;5068309;28;20060;-70
2021/12/14 09:42:44;;;;;;;50.70;23.58;;;;;;;;;;5068128;28;20155;-70
2021/12/14 09:45:14;;;;;;;59.67;25.08;;;;;;;;;;5067906;28;20515;-70
2021/12/14 09:47:41;;;;;;;56.95;24.45;;;;;;;;;;5059547;28;20080;-70
2021/12/14 09:50:12;;;;;;;62.40;25.08;;;;;;;;;;5067399;28;20053;-71
2021/12/14 09:52:41;;;;;;;63.78;25.70;;;;;;;;;;5068100;28;20530;-70
2021/12/14 09:55:09;;;;;;;72.45;27.15;;;;;;;;;;5065593;28;20067;-70
2021/12/14 09:57:38;;;;;;;67.28;27.40;;;;;;;;;;5054580;28;20919;-71
2021/12/14 10:00:09;;;;;;;64.70;26.80;;;;;;;;;;5068050;28;20589;-71
2021/12/14 10:02:36;;;;;;;63.75;26.35;;;;;;;;;;5077141;28;20059;-70
2021/12/14 10:05:12;;;;;;;78.22;29.38;;;;;;;;;;5067840;28;20057;-73
2021/12/14 10:07:38;;;;;;;78.18;29.73;;;;;;;;;;5068933;28;20052;-71
2021/12/14 10:10:06;;;;;;;60.38;27.70;;;;;;;;;;5068784;28;20057;-70
2021/12/14 10:12:49;;;;;;;65.73;27.83;;;;;;;;;;5063840;28;20214;-71
2021/12/14 10:15:22;;;;;;;74.70;29.25;;;;;;;;;;5067492;28;20155;-71
2021/12/14 10:17:49;;;;;;;71.50;29.52;;;;;;;;;;5067746;28;20445;-71
2021/12/14 10:20:18;;;;;;;56.92;25.60;;;;;;;;;;5067406;28;20503;-71
2021/12/14 10:22:45;;;;;;;76.50;28.95;;;;;;;;;;5068277;28;20151;-71
2021/12/14 10:25:17;;;;;;;58.88;27.27;;;;;;;;;;5068239;28;20049;-71
2021/12/14 10:27:43;;;;;;;69.30;28.35;;;;;;;;;;5067629;28;20048;-72
2021/12/14 10:30:12;;;;;;;65.15;28.15;;;;;;;;;;5066919;28;20534;-71
2021/12/14 10:32:38;;;;;;;;;;;;;;;;;;5059025;28;20057;-71
2021/12/14 10:35:07;;;;;;;62.40;27.58;;;;;;;;;;5063277;28;44669;-70
2021/12/14 10:38:08;;;;;;;58.38;26.20;;;;;;;;;;5059683;28;20057;-70
2021/12/14 10:43:23;;;;;;;68.07;29.67;;;;;;;;;;5065671;28;20080;-70
2021/12/14 10:45:53;;;;;;;66.78;29.38;;;;;;;;;;5079095;28;20053;-70
2021/12/14 10:48:20;;;;;;;76.20;30.10;;;;;;;;;;5068117;28;20072;-69
2021/12/14 10:50:48;;;;;;;72.10;29.15;;;;;;;;;;5066668;28;20060;-70
2021/12/14 10:53:14;;;;;;;73.90;29.43;;;;;;;;;;5070667;28;20053;-70
2021/12/14 10:55:43;;;;;;;65.55;28.83;;;;;;;;;;5057760;28;20363;-70
2021/12/14 10:58:12;;;;;;;90.72;32.50;;;;;;;;;;5050610;28;21042;-70
2021/12/14 11:00:53;;;;;;;72.57;30.52;;;;;;;;;;5054734;28;20057;-70
2021/12/14 11:03:22;;;;;;;73.65;29.75;;;;;;;;;;5052720;28;20063;-70
2021/12/14 11:05:51;;;;;;;;;;;;;;;;;;5053215;28;20053;-70
2021/12/14 11:11:04;;;;;;;72.80;29.70;;;;;;;;;;5055057;28;46247;-70
2021/12/14 11:13:45;;;;;;;79.00;31.58;;;;;;;;;;5054718;28;21308;-70
2021/12/14 11:16:20;;;;;;;84.25;32.72;;;;;;;;;;5053982;28;20053;-71
2021/12/14 11:18:48;;;;;;;71.55;29.70;;;;;;;;;;5055752;28;20523;-71
2021/12/14 11:21:18;;;;;;;79.65;32.03;;;;;;;;;;5052362;28;20075;-71
2021/12/14 11:23:46;;;;;;;72.47;31.25;;;;;;;;;;5055956;28;20062;-70
2021/12/14 11:26:14;;;;;;;;;;;;;;;;;;5059416;28;20147;-71
2021/12/14 11:28:48;;;;;;;79.22;31.58;;;;;;;;;;5056201;28;45361;-70
2021/12/14 11:31:16;;;;;;;62.88;30.63;;;;;;;;;;5055151;28;20062;-70
2021/12/14 11:33:51;;;;;;;79.85;31.67;;;;;;;;;;5058207;28;20056;-70
2021/12/14 11:36:18;;;;;;;78.93;33.38;;;;;;;;;;5061522;28;20100;-71
2021/12/14 11:38:53;;;;;;;82.63;33.72;;;;;;;;;;5055775;28;20062;-71
2021/12/14 11:41:22;;;;;;;84.03;36.28;;;;;;;;;;5057896;28;20054;-70
2021/12/14 11:43:51;;;;;;;92.75;34.35;;;;;;;;;;5061863;28;20192;-71
2021/12/14 11:46:17;;;;;;;;;;;;;;;;;;5057855;28;20056;-70
2021/12/14 11:48:44;;;;;;;82.57;32.47;;;;;;;;;;5057691;28;44630;-70
2021/12/14 11:51:12;;;;;;;81.30;31.75;;;;;;;;;;5060656;28;20053;-71
2021/12/14 11:53:47;;;;;;;80.85;33.20;;;;;;;;;;5059200;28;20054;-71
2021/12/14 11:56:16;;;;;;;107.57;35.25;;;;;;;;;;5058889;28;20049;-70
2021/12/14 11:58:48;;;;;;;103.57;35.45;;;;;;;;;;5059048;28;20057;-70
2021/12/14 12:01:18;;;;;;;85.65;34.03;;;;;;;;;;5060146;28;20128;-71
2021/12/14 12:03:45;;;;;;;96.97;35.67;;;;;;;;;;5062123;28;20071;-71
2021/12/14 12:06:15;;;;;;;84.07;33.42;;;;;;;;;;5061254;28;20059;-71
2021/12/14 12:11:36;;;;;;;88.43;32.90;;;;;;;;;;5059165;28;20059;-71
2021/12/14 12:14:15;;;;;;;84.22;33.03;;;;;;;;;;5053313;28;20060;-71
2021/12/14 12:16:41;;;;;;;80.75;33.35;;;;;;;;;;5059943;28;20056;-71
2021/12/14 12:19:14;;;;;;;75.97;32.00;;;;;;;;;;5056339;28;20103;-73
2021/12/14 12:21:42;;;;;;;97.97;35.00;;;;;;;;;;5053625;28;20187;-73
2021/12/14 12:24:27;;;;;;;90.33;33.60;;;;;;;;;;5053773;28;20175;-72
2021/12/14 12:26:53;;;;;;;88.15;32.97;;;;;;;;;;5058365;28;20048;-72
2021/12/14 12:29:25;;;;;;;78.68;32.17;;;;;;;;;;5053511;28;20093;-70
2021/12/14 12:31:59;;;;;;;100.65;35.90;;;;;;;;;;5062855;28;20059;-71
2021/12/14 12:34:35;;;;;;;87.32;32.92;;;;;;;;;;5068353;28;20092;-72
2021/12/14 12:37:02;;;;;;;83.82;32.28;;;;;;;;;;5064201;28;20054;-74
2021/12/14 12:39:29;;;;;;;82.60;32.22;;;;;;;;;;5058955;28;20058;-72
2021/12/14 12:41:58;;;;;;;90.25;33.17;;;;;;;;;;5059324;28;20523;-73
2021/12/14 12:44:32;;;;;;;86.63;32.47;;;;;;;;;;5056460;28;20055;-72
2021/12/14 12:46:59;;;;;;;86.65;34.20;;;;;;;;;;5069325;28;20063;-72
2021/12/14 12:49:30;;;;;;;82.57;33.75;;;;;;;;;;5054918;28;20056;-73
2021/12/14 12:52:06;;;;;;;84.63;33.50;;;;;;;;;;5067222;28;20151;-72
2021/12/14 12:54:33;;;;;;;84.13;33.33;;;;;;;;;;5062460;28;20074;-72
2021/12/14 12:57:08;;;;;;;84.68;33.53;;;;;;;;;;5063326;28;20046;-73
2021/12/14 12:59:37;;;;;;;101.85;36.00;;;;;;;;;;5059473;28;20053;-72
2021/12/14 13:02:10;;;;;;;90.22;33.90;;;;;;;;;;5058498;28;20088;-72
2021/12/14 13:04:39;;;;;;;87.15;33.90;;;;;;;;;;5068145;28;20502;-72
2021/12/14 13:07:06;;;;;;;79.82;33.42;;;;;;;;;;5061203;28;20057;-70
2021/12/14 13:09:52;;;;;;;74.72;32.55;;;;;;;;;;5077664;28;20438;-70
2021/12/14 13:12:36;;;;;;;79.55;31.00;;;;;;;;;;5059344;28;20136;-69
2021/12/14 13:15:02;;;;;;;72.75;30.95;;;;;;;;;;5058184;28;20530;-72
2021/12/14 13:17:29;;;;;;;74.78;31.35;;;;;;;;;;5083565;28;20045;-70
2021/12/14 13:19:59;;;;;;;76.65;31.80;;;;;;;;;;5065892;28;20045;-73
2021/12/14 13:22:25;;;;;;;83.82;30.73;;;;;;;;;;5069434;28;20810;-70
2021/12/14 13:24:52;;;;;;;76.28;30.42;;;;;;;;;;5069161;28;20513;-70
2021/12/14 13:27:22;;;;;;;76.93;31.58;;;;;;;;;;5063223;28;20059;-69
2021/12/14 13:29:52;;;;;;;76.13;29.13;;;;;;;;;;5061436;28;20534;-69
2021/12/14 13:32:19;;;;;;;77.00;30.55;;;;;;;;;;5055675;28;20057;-69
2021/12/14 13:34:48;;;;;;;71.32;28.80;;;;;;;;;;5053844;28;20175;-70
2021/12/14 13:37:17;;;;;;;81.53;30.27;;;;;;;;;;5053349;28;20081;-69
2021/12/14 13:39:45;;;;;;;83.05;29.52;;;;;;;;;;5060898;28;20535;-69
2021/12/14 13:42:11;;;;;;;74.90;29.00;;;;;;;;;;5053519;28;20053;-69
2021/12/14 13:44:39;;;;;;;70.38;27.55;;;;;;;;;;5069373;28;21099;-71
2021/12/14 13:47:07;;;;;;;87.40;28.55;;;;;;;;;;5055075;28;20566;-69
2021/12/14 13:49:35;;;;;;;75.50;27.77;;;;;;;;;;5058823;28;20139;-72
2021/12/14 13:52:02;;;;;;;70.55;26.85;;;;;;;;;;5063554;28;20059;-69
2021/12/14 13:54:28;;;;;;;68.20;26.90;;;;;;;;;;5066226;28;20041;-70
2021/12/14 13:56:55;;;;;;;62.22;24.80;;;;;;;;;;5059862;28;20061;-71
2021/12/14 13:59:22;;;;;;;69.13;26.80;;;;;;;;;;5064753;28;20598;-71
2021/12/14 14:01:50;;;;;;;69.72;26.35;;;;;;;;;;5077791;28;20125;-70
2021/12/14 14:04:17;;;;;;;;;;;;;;;;;;5066974;28;20136;-69
2021/12/14 14:06:44;;;;;;;59.53;23.63;;;;;;;;;;5058526;28;45691;-71
2021/12/14 14:09:13;;;;;;;62.08;24.83;;;;;;;;;;5056391;28;20052;-70
2021/12/14 14:11:41;;;;;;;101.13;28.05;;;;;;;;;;5061581;28;20063;-71
2021/12/14 14:14:10;;;;;;;62.58;24.77;;;;;;;;;;5074361;28;20656;-71
2021/12/14 14:16:39;;;;;;;61.42;24.55;;;;;;;;;;5056613;28;20203;-70
2021/12/14 14:19:08;;;;;;;62.72;25.48;;;;;;;;;;5054330;28;20057;-70
2021/12/14 14:21:34;;;;;;;66.72;26.10;;;;;;;;;;5068083;28;20052;-70
2021/12/14 14:24:01;;;;;;;61.97;25.10;;;;;;;;;;5057092;28;20568;-70
2021/12/14 14:26:28;;;;;;;60.45;24.08;;;;;;;;;;5051282;28;20150;-71
2021/12/14 14:29:03;;;;;;;72.35;25.98;;;;;;;;;;5066494;28;20080;-71
2021/12/14 14:31:30;;;;;;;64.60;25.45;;;;;;;;;;5067934;28;20079;-69
2021/12/14 14:34:04;;;;;;;64.70;24.13;;;;;;;;;;5067552;28;20132;-70
2021/12/14 14:36:35;;;;;;;68.60;26.85;;;;;;;;;;5068384;28;20079;-69
2021/12/14 14:39:07;;;;;;;67.60;26.33;;;;;;;;;;5067705;28;20095;-69
2021/12/14 14:41:35;;;;;;;74.45;27.77;;;;;;;;;;5073861;28;21023;-70
2021/12/14 14:44:06;;;;;;;74.18;27.30;;;;;;;;;;5063152;28;20053;-71
2021/12/14 14:46:55;;;;;;;72.03;26.73;;;;;;;;;;5067483;28;20056;-70
2021/12/14 14:49:21;;;;;;;103.05;29.90;;;;;;;;;;5072756;28;20495;-71
2021/12/14 14:51:48;;;;;;;90.65;30.48;;;;;;;;;;5066236;28;20057;-71
2021/12/14 14:54:32;;;;;;;84.43;31.10;;;;;;;;;;5050423;28;20057;-71
2021/12/14 14:57:19;;;;;;;79.60;29.27;;;;;;;;;;5056324;28;20103;-73
2021/12/14 14:59:54;;;;;;;79.00;29.75;;;;;;;;;;5057045;28;20051;-71
2021/12/14 15:02:48;;;;;;;86.18;30.05;;;;;;;;;;5056845;28;20537;-71
2021/12/14 15:05:34;;;;;;;95.03;30.58;;;;;;;;;;5060471;27;20076;-71
2021/12/14 15:08:03;;;;;;;100.45;34.33;;;;;;;;;;5086219;28;20067;-71
2021/12/14 15:10:41;;;;;;;106.10;34.40;;;;;;;;;;5055017;28;20057;-72
2021/12/14 15:13:24;;;;;;;88.60;31.92;;;;;;;;;;5052230;28;20443;-71
2021/12/14 15:15:54;;;;;;;86.60;31.35;;;;;;;;;;5070358;28;20416;-71